createdAt,value
2023-04-16T00:03:25.279Z,7.03
2023-04-16T00:07:38.870Z,6.30
2023-04-16T00:11:47.973Z,6.77
2023-04-16T00:16:00.691Z,5.63
2023-04-16T00:20:12.413Z,6.40
2023-04-16T00:24:22.067Z,6.63
2023-04-16T00:28:30.682Z,5.40
2023-04-16T00:32:39.954Z,5.93
2023-04-16T00:36:50.564Z,5.70
2023-04-16T00:40:59.926Z,5.53
2023-04-16T00:45:29.783Z,7.97
2023-04-16T00:49:41.457Z,7.03
2023-04-16T00:53:53.656Z,8.07
2023-04-16T00:58:05.068Z,7.10
2023-04-16T01:02:15.368Z,7.70
2023-04-16T01:06:25.908Z,8.90
2023-04-16T01:10:37.467Z,7.70
2023-04-16T01:14:46.878Z,7.60
2023-04-16T01:18:56.117Z,7.63
2023-04-16T01:23:05.556Z,8.10
2023-04-16T01:27:15.096Z,7.90
2023-04-16T01:31:24.738Z,9.50
2023-04-16T01:35:53.052Z,8.27
2023-04-16T01:40:03.836Z,8.20
2023-04-16T01:44:14.704Z,8.57
2023-04-16T01:48:23.937Z,7.60
2023-04-16T01:52:34.317Z,8.50
2023-04-16T01:56:44.745Z,9.70
2023-04-16T02:00:53.759Z,10.40
2023-04-16T02:05:02.676Z,9.10
2023-04-16T02:09:11.861Z,9.47
2023-04-16T02:13:20.627Z,8.13
2023-04-16T02:17:29.677Z,8.13
2023-04-16T02:21:38.394Z,8.97
2023-04-16T02:25:48.580Z,9.40
2023-04-16T02:30:00.254Z,8.33
2023-04-16T02:34:09.034Z,9.90
2023-04-16T02:38:18.025Z,8.80
2023-04-16T02:42:28.584Z,8.97
2023-04-16T02:46:37.487Z,9.17
2023-04-16T02:50:46.280Z,9.47
2023-04-16T02:54:56.368Z,8.67
2023-04-16T02:59:05.258Z,8.40
2023-04-16T03:03:14.138Z,9.70
2023-04-16T03:07:25.557Z,10.00
2023-04-16T03:11:34.241Z,10.97
2023-04-16T03:15:42.972Z,9.90
2023-04-16T03:19:51.686Z,9.30
2023-04-16T03:24:10.773Z,9.00
2023-04-16T03:28:10.788Z,9.50
2023-04-16T03:32:21.335Z,10.93
2023-04-16T03:36:33.243Z,8.47
2023-04-16T03:40:41.795Z,10.00
2023-04-16T03:44:51.244Z,9.30
2023-04-16T03:49:02.607Z,9.70
2023-04-16T03:53:13.001Z,11.13
2023-04-16T03:57:21.627Z,9.60
2023-04-16T04:01:30.257Z,11.60
2023-04-16T04:05:42.718Z,9.53
2023-04-16T04:09:51.538Z,10.60
2023-04-16T04:14:00.458Z,11.23
2023-04-16T04:18:14.504Z,12.13
2023-04-16T04:22:23.239Z,8.67
2023-04-16T04:26:31.952Z,10.43
2023-04-16T04:31:09.287Z,10.03
2023-04-16T04:35:15.578Z,12.73
2023-04-16T04:39:24.887Z,10.53
2023-04-16T04:43:43.924Z,11.20
2023-04-16T04:47:56.027Z,9.43
2023-04-16T04:52:05.118Z,12.13
2023-04-16T04:56:14.886Z,11.97
2023-04-16T05:00:25.554Z,12.17
2023-04-16T05:04:34.398Z,9.50
2023-04-16T05:08:48.843Z,10.10
2023-04-16T05:12:57.674Z,10.40
2023-04-16T05:17:08.073Z,9.87
2023-04-16T05:21:18.305Z,11.00
2023-04-16T05:25:26.928Z,12.97
2023-04-16T05:29:35.604Z,12.60
2023-04-16T05:33:44.287Z,14.10
2023-04-16T05:37:52.907Z,11.70
2023-04-16T05:42:01.659Z,13.53
2023-04-16T05:46:10.521Z,14.10
2023-04-16T05:50:21.631Z,14.33
2023-04-16T05:54:30.411Z,13.60
2023-04-16T05:58:39.244Z,13.73
2023-04-16T06:02:51.537Z,16.43
2023-04-16T06:07:02.184Z,13.98
2023-04-16T06:11:15.799Z,18.83
2023-04-16T06:15:26.262Z,15.10
2023-04-16T06:19:43.585Z,14.03
2023-04-16T06:23:53.238Z,11.03
2023-04-16T06:28:01.972Z,16.97
2023-04-16T06:32:11.109Z,12.90
2023-04-16T06:36:19.759Z,13.73
2023-04-16T06:40:50.444Z,14.03
2023-04-16T06:45:02.731Z,12.27
2023-04-16T06:49:13.073Z,13.60
2023-04-16T06:53:25.907Z,15.17
2023-04-16T06:57:36.261Z,13.40
2023-04-16T07:01:46.404Z,12.00
2023-04-16T07:05:55.351Z,15.50
2023-04-16T07:10:05.891Z,12.80
2023-04-16T07:14:14.629Z,13.10
2023-04-16T07:18:27.076Z,14.20
2023-04-16T07:22:35.422Z,14.20
2023-04-16T07:26:44.353Z,15.77
2023-04-16T07:30:53.077Z,13.17
2023-04-16T07:35:01.734Z,15.40
2023-04-16T07:39:13.198Z,16.43
2023-04-16T07:43:21.800Z,14.17
2023-04-16T07:47:30.747Z,13.77
2023-04-16T07:51:41.903Z,16.00
2023-04-16T07:55:52.324Z,16.30
2023-04-16T08:00:20.410Z,15.03
2023-04-16T08:04:29.595Z,16.00
2023-04-16T08:08:38.950Z,15.83
2023-04-16T08:12:55.270Z,16.00
2023-04-16T08:17:04.050Z,16.33
2023-04-16T08:21:12.777Z,16.33
2023-04-16T08:25:25.299Z,17.17
2023-04-16T08:29:34.103Z,14.33
2023-04-16T08:33:43.208Z,15.23
2023-04-16T08:37:51.830Z,14.00
2023-04-16T08:42:02.121Z,16.17
2023-04-16T08:46:13.239Z,15.00
2023-04-16T08:50:24.889Z,13.63
2023-04-16T08:54:56.928Z,15.60
2023-04-16T08:59:07.587Z,14.63
2023-04-16T09:03:16.663Z,16.17
2023-04-16T09:07:26.657Z,16.07
2023-04-16T09:11:36.381Z,16.47
2023-04-16T09:15:45.900Z,16.53
2023-04-16T09:19:55.143Z,14.77
2023-04-16T09:24:04.824Z,15.40
2023-04-16T09:28:13.529Z,14.47
2023-04-16T09:32:29.979Z,15.87
2023-04-16T09:36:38.762Z,15.70
2023-04-16T09:40:58.884Z,14.07
2023-04-16T09:45:10.652Z,17.03
2023-04-16T09:49:23.552Z,14.93
2023-04-16T09:53:39.723Z,15.23
2023-04-16T09:58:05.418Z,16.70
2023-04-16T10:02:21.035Z,14.20
2023-04-16T10:06:32.529Z,14.57
2023-04-16T10:10:45.795Z,14.77
2023-04-16T10:14:59.289Z,14.93
2023-04-16T10:19:08.608Z,13.77
2023-04-16T10:23:20.033Z,14.03
2023-04-16T10:27:29.385Z,13.50
2023-04-16T10:31:41.392Z,14.73
2023-04-16T10:36:01.378Z,13.00
2023-04-16T10:40:01.836Z,13.60
2023-04-16T10:44:11.620Z,13.90
2023-04-16T10:48:20.624Z,12.87
2023-04-16T10:56:47.313Z,11.90
2023-04-16T11:00:58.135Z,13.07
2023-04-16T11:05:07.813Z,13.40
2023-04-16T11:09:22.486Z,12.80
2023-04-16T11:13:32.956Z,11.77
2023-04-16T11:17:52.738Z,12.73
2023-04-16T11:22:01.785Z,10.70
2023-04-16T11:26:13.477Z,11.83
2023-04-16T11:30:34.085Z,11.30
2023-04-16T11:34:47.106Z,11.17
2023-04-16T11:38:58.824Z,11.73
2023-04-16T11:43:38.687Z,8.97
2023-04-16T11:47:51.810Z,11.70
2023-04-16T11:52:04.171Z,11.40
2023-04-16T11:56:15.203Z,11.83
2023-04-16T12:00:26.900Z,11.80
2023-04-16T12:04:35.651Z,10.30
2023-04-16T12:08:44.479Z,10.87
2023-04-16T12:12:53.096Z,10.67
2023-04-16T12:17:21.546Z,11.50
2023-04-16T12:21:50.296Z,11.90
2023-04-16T12:26:02.500Z,11.60
2023-04-16T12:30:12.211Z,9.70
2023-04-16T12:34:22.344Z,10.60
2023-04-16T12:38:32.504Z,12.00
2023-04-16T12:42:42.759Z,12.13
2023-04-16T12:46:57.793Z,9.33
2023-04-16T12:51:07.248Z,11.90
2023-04-16T12:55:16.046Z,12.37
2023-04-16T12:59:25.202Z,12.57
2023-04-16T13:03:35.701Z,10.90
2023-04-16T13:07:44.790Z,13.03
2023-04-16T13:11:53.355Z,12.20
2023-04-16T13:16:03.743Z,11.80
2023-04-16T13:20:13.538Z,12.30
2023-04-16T13:24:23.151Z,13.87
2023-04-16T13:28:31.826Z,11.23
2023-04-16T13:32:40.902Z,12.57
2023-04-16T13:37:06.794Z,11.37
2023-04-16T13:41:20.792Z,12.33
2023-04-16T13:45:29.573Z,12.00
2023-04-16T13:49:38.118Z,11.43
2023-04-16T13:53:46.793Z,12.23
2023-04-16T13:57:56.262Z,12.30
2023-04-16T14:02:05.354Z,11.80
2023-04-16T14:06:17.118Z,13.23
2023-04-16T14:10:27.235Z,12.27
2023-04-16T14:14:38.731Z,11.43
2023-04-16T14:18:48.122Z,13.35
2023-04-16T14:22:57.063Z,11.63
2023-04-16T14:27:05.697Z,11.70
2023-04-16T14:31:14.574Z,10.78
2023-04-16T14:35:23.905Z,11.70
2023-04-16T14:39:32.705Z,11.70
2023-04-16T14:43:41.772Z,10.73
2023-04-16T14:47:51.477Z,12.73
2023-04-16T14:52:02.575Z,9.80
2023-04-16T14:56:13.677Z,11.77
2023-04-16T15:00:22.623Z,11.90
2023-04-16T15:04:32.002Z,12.07
2023-04-16T15:08:40.890Z,12.03
2023-04-16T15:12:49.645Z,11.90
2023-04-16T15:16:58.288Z,10.90
2023-04-16T15:21:07.114Z,11.20
2023-04-16T15:25:15.917Z,10.90
2023-04-16T15:29:24.649Z,13.13
2023-04-16T15:33:33.268Z,11.57
2023-04-16T15:37:42.011Z,12.23
2023-04-16T15:42:00.594Z,14.60
2023-04-16T15:46:00.886Z,12.40
2023-04-16T15:50:09.848Z,11.47
2023-04-16T15:54:20.004Z,11.53
2023-04-16T15:58:28.647Z,12.00
2023-04-16T16:02:38.351Z,13.13
2023-04-16T16:06:47.322Z,14.27
2023-04-16T16:10:56.443Z,13.97
2023-04-16T16:15:26.194Z,12.43
2023-04-16T16:19:34.823Z,13.27
2023-04-16T16:23:43.458Z,13.93
2023-04-16T16:27:52.971Z,13.30
2023-04-16T16:32:01.720Z,13.97
2023-04-16T16:36:13.765Z,13.53
2023-04-16T16:40:22.468Z,13.07
2023-04-16T16:44:31.116Z,12.77
2023-04-16T16:48:39.823Z,12.97
2023-04-16T16:52:48.705Z,13.87
2023-04-16T16:56:57.800Z,13.53
2023-04-16T17:01:06.620Z,14.07
2023-04-16T17:05:15.363Z,12.97
2023-04-16T17:09:24.098Z,14.13
2023-04-16T17:13:32.879Z,14.47
2023-04-16T17:17:41.932Z,12.37
2023-04-16T17:21:51.940Z,13.57
2023-04-16T17:26:21.763Z,14.30
2023-04-16T17:30:32.530Z,15.33
2023-04-16T17:34:41.159Z,15.10
2023-04-16T17:38:50.505Z,13.70
2023-04-16T17:42:59.238Z,15.70
2023-04-16T17:47:07.871Z,14.03
2023-04-16T17:51:16.737Z,16.30
2023-04-16T17:55:26.973Z,14.57
2023-04-16T17:59:35.795Z,16.13
2023-04-16T18:03:44.793Z,15.00
2023-04-16T18:07:55.444Z,15.23
2023-04-16T18:12:04.245Z,13.87
2023-04-16T18:16:20.782Z,16.90
2023-04-16T18:20:29.695Z,14.47
2023-04-16T18:24:38.322Z,16.07
2023-04-16T18:28:46.951Z,13.53
2023-04-16T18:33:26.339Z,14.10
2023-04-16T18:37:10.023Z,12.20
2023-04-16T18:41:20.826Z,12.37
2023-04-16T18:45:29.420Z,12.87
2023-04-16T18:49:38.081Z,12.10
2023-04-16T18:53:46.713Z,14.20
2023-04-16T18:57:55.368Z,13.00
2023-04-16T19:02:04.214Z,13.37
2023-04-16T19:06:12.985Z,14.33
2023-04-16T19:10:21.574Z,13.00
2023-04-16T19:14:30.207Z,12.80
2023-04-16T19:18:39.532Z,12.80
2023-04-16T19:22:48.332Z,11.67
2023-04-16T19:26:57.340Z,14.87
2023-04-16T19:31:06.377Z,12.27
2023-04-16T19:35:15.400Z,14.33
2023-04-16T19:39:28.167Z,13.87
2023-04-16T19:43:37.114Z,14.30
2023-04-16T19:47:47.617Z,12.87
2023-04-16T19:51:57.957Z,14.50
2023-04-16T19:56:06.905Z,14.07
2023-04-16T20:00:17.274Z,11.75
2023-04-16T20:04:25.954Z,14.23
2023-04-16T20:08:34.709Z,12.37
2023-04-16T20:12:43.355Z,11.03
2023-04-16T20:16:52.225Z,13.00
2023-04-16T20:21:05.324Z,13.77
2023-04-16T20:25:14.693Z,13.23
2023-04-16T20:29:23.502Z,12.93
2023-04-16T20:33:32.536Z,12.60
2023-04-16T20:37:42.921Z,13.50
2023-04-16T20:41:54.381Z,13.10
2023-04-16T20:46:03.071Z,13.17
2023-04-16T20:50:12.061Z,15.70
2023-04-16T20:54:20.792Z,14.50
2023-04-16T20:58:30.359Z,16.33
2023-04-16T21:02:39.337Z,14.30
2023-04-16T21:06:49.106Z,14.63
2023-04-16T21:10:57.817Z,15.33
2023-04-16T21:15:07.339Z,15.00
2023-04-16T21:19:15.952Z,16.07
2023-04-16T21:23:24.583Z,13.40
2023-04-16T21:27:33.429Z,16.97
2023-04-16T21:31:42.118Z,17.30
2023-04-16T21:35:54.472Z,16.27
2023-04-16T21:40:04.965Z,16.80
2023-04-16T21:44:15.114Z,15.80
2023-04-16T21:48:29.360Z,19.33
2023-04-16T21:52:39.960Z,17.00
2023-04-16T21:56:48.674Z,16.50
2023-04-16T22:00:57.454Z,18.80
2023-04-16T22:05:07.981Z,17.87
2023-04-16T22:09:16.701Z,19.23
2023-04-16T22:13:26.209Z,17.67
2023-04-16T22:17:35.889Z,20.17
2023-04-16T22:21:45.049Z,19.50
2023-04-16T22:25:57.445Z,18.50
2023-04-16T22:30:08.233Z,18.10
2023-04-16T22:34:16.843Z,18.40
2023-04-16T22:38:25.516Z,19.27
2023-04-16T22:42:34.148Z,18.03
2023-04-16T22:46:42.792Z,19.60
2023-04-16T22:50:51.486Z,19.30
2023-04-16T22:59:16.045Z,19.50
2023-04-16T23:03:24.835Z,19.80
2023-04-16T23:07:33.647Z,18.40
2023-04-16T23:11:42.359Z,19.40
2023-04-16T23:15:51.121Z,18.43
2023-04-16T23:19:59.911Z,19.20
2023-04-16T23:24:09.210Z,17.90
2023-04-16T23:28:17.878Z,16.73
2023-04-16T23:32:26.631Z,18.57
2023-04-16T23:36:35.343Z,17.30
2023-04-16T23:40:44.001Z,18.73
2023-04-16T23:44:52.706Z,14.47
2023-04-16T23:49:01.524Z,18.13
2023-04-16T23:53:10.327Z,17.20
2023-04-16T23:57:19.000Z,17.77
